sensor_id;sensor_type;location;lat;lon;timestamp;pressure;altitude;pressure_sealevel;temperature;humidity
3178;BME280;38141;42.666;23.344;2023-03-15T00:01:20;93686.47;;;7.80;44.45
3178;BME280;38141;42.666;23.344;2023-03-15T00:03:50;93672.25;;;7.76;44.67
3178;BME280;38141;42.666;23.344;2023-03-15T00:06:20;93682.97;;;7.87;45.21
3178;BME280;38141;42.666;23.344;2023-03-15T00:08:47;93672.22;;;7.94;44.56
3178;BME280;38141;42.666;23.344;2023-03-15T00:11:14;93662.91;;;8.05;44.63
3178;BME280;38141;42.666;23.344;2023-03-15T00:13:42;93662.16;;;8.05;44.39
3178;BME280;38141;42.666;23.344;2023-03-15T00:16:09;93674.09;;;8.08;44.75
3178;BME280;38141;42.666;23.344;2023-03-15T00:18:36;93654.13;;;7.94;45.27
3178;BME280;38141;42.666;23.344;2023-03-15T00:21:03;93680.97;;;8.09;46.07
3178;BME280;38141;42.666;23.344;2023-03-15T00:23:31;93683.28;;;8.17;46.76
3178;BME280;38141;42.666;23.344;2023-03-15T00:25:58;93680.63;;;7.99;47.21
3178;BME280;38141;42.666;23.344;2023-03-15T00:28:25;93681.81;;;7.98;48.04
3178;BME280;38141;42.666;23.344;2023-03-15T00:31:02;93674.59;;;7.64;49.40
3178;BME280;38141;42.666;23.344;2023-03-15T00:33:29;93678.78;;;7.79;50.57
3178;BME280;38141;42.666;23.344;2023-03-15T00:36:02;93671.50;;;7.69;50.74
3178;BME280;38141;42.666;23.344;2023-03-15T00:38:29;93653.78;;;7.85;51.24
3178;BME280;38141;42.666;23.344;2023-03-15T00:40:57;93657.94;;;8.00;50.47
3178;BME280;38141;42.666;23.344;2023-03-15T00:43:24;93647.22;;;7.90;52.01
3178;BME280;38141;42.666;23.344;2023-03-15T00:45:51;93654.16;;;7.84;51.57
3178;BME280;38141;42.666;23.344;2023-03-15T00:48:17;93666.56;;;7.49;51.82
3178;BME280;38141;42.666;23.344;2023-03-15T00:50:44;93662.34;;;7.34;52.61
3178;BME280;38141;42.666;23.344;2023-03-15T00:53:11;93661.94;;;7.43;52.98
3178;BME280;38141;42.666;23.344;2023-03-15T00:55:38;93651.97;;;7.40;54.15
3178;BME280;38141;42.666;23.344;2023-03-15T00:58:06;93650.41;;;7.46;54.07
3178;BME280;38141;42.666;23.344;2023-03-15T01:00:33;93643.81;;;7.65;53.42
3178;BME280;38141;42.666;23.344;2023-03-15T01:03:00;93638.03;;;7.70;53.28
3178;BME280;38141;42.666;23.344;2023-03-15T01:05:26;93634.22;;;7.64;54.34
3178;BME280;38141;42.666;23.344;2023-03-15T01:07:53;93636.16;;;7.63;54.19
3178;BME280;38141;42.666;23.344;2023-03-15T01:10:20;93631.56;;;7.56;54.47
3178;BME280;38141;42.666;23.344;2023-03-15T01:12:46;93619.28;;;7.38;54.80
3178;BME280;38141;42.666;23.344;2023-03-15T01:15:15;93632.69;;;7.63;53.94
3178;BME280;38141;42.666;23.344;2023-03-15T01:17:42;93628.81;;;7.71;54.20
3178;BME280;38141;42.666;23.344;2023-03-15T01:20:12;93621.09;;;7.73;54.26
3178;BME280;38141;42.666;23.344;2023-03-15T01:22:39;93614.19;;;7.68;53.92
3178;BME280;38141;42.666;23.344;2023-03-15T01:25:07;93614.53;;;7.84;54.26
3178;BME280;38141;42.666;23.344;2023-03-15T01:27:34;93604.59;;;7.64;54.47
3178;BME280;38141;42.666;23.344;2023-03-15T01:30:01;93609.91;;;7.81;53.24
3178;BME280;38141;42.666;23.344;2023-03-15T01:32:29;93584.59;;;7.75;53.58
3178;BME280;38141;42.666;23.344;2023-03-15T01:34:56;93608.03;;;7.78;54.26
3178;BME280;38141;42.666;23.344;2023-03-15T01:37:23;93608.09;;;7.60;54.77
3178;BME280;38141;42.666;23.344;2023-03-15T01:39:50;93600.81;;;7.50;55.57
3178;BME280;38141;42.666;23.344;2023-03-15T01:42:17;93600.38;;;7.66;55.17
3178;BME280;38141;42.666;23.344;2023-03-15T01:44:53;93594.97;;;7.73;54.76
3178;BME280;38141;42.666;23.344;2023-03-15T01:47:20;93596.13;;;7.76;55.06
3178;BME280;38141;42.666;23.344;2023-03-15T01:49:57;93592.28;;;7.77;54.74
3178;BME280;38141;42.666;23.344;2023-03-15T01:52:30;93589.94;;;7.79;55.28
3178;BME280;38141;42.666;23.344;2023-03-15T01:55:04;93585.00;;;7.67;55.06
3178;BME280;38141;42.666;23.344;2023-03-15T01:57:35;93581.16;;;7.64;54.69
3178;BME280;38141;42.666;23.344;2023-03-15T02:00:06;93579.13;;;7.89;54.17
3178;BME280;38141;42.666;23.344;2023-03-15T02:02:37;93575.81;;;7.57;54.90
3178;BME280;38141;42.666;23.344;2023-03-15T02:05:16;93580.06;;;7.47;56.40
3178;BME280;38141;42.666;23.344;2023-03-15T02:07:45;93575.88;;;7.36;56.76
3178;BME280;38141;42.666;23.344;2023-03-15T02:10:17;93527.19;;;6.91;57.71
3178;BME280;38141;42.666;23.344;2023-03-15T02:12:49;93564.31;;;7.46;57.28
3178;BME280;38141;42.666;23.344;2023-03-15T02:15:17;93559.72;;;7.43;57.08
3178;BME280;38141;42.666;23.344;2023-03-15T02:17:45;93546.31;;;7.36;57.32
3178;BME280;38141;42.666;23.344;2023-03-15T02:20:25;93549.72;;;7.43;56.54
3178;BME280;38141;42.666;23.344;2023-03-15T02:22:55;93537.47;;;7.28;57.27
3178;BME280;38141;42.666;23.344;2023-03-15T02:25:31;93540.91;;;7.32;57.86
3178;BME280;38141;42.666;23.344;2023-03-15T02:28:03;93542.13;;;7.10;58.89
3178;BME280;38141;42.666;23.344;2023-03-15T02:30:31;93536.38;;;7.04;58.62
3178;BME280;38141;42.666;23.344;2023-03-15T02:32:59;93540.59;;;7.09;58.59
3178;BME280;38141;42.666;23.344;2023-03-15T02:35:28;93544.38;;;7.29;56.76
3178;BME280;38141;42.666;23.344;2023-03-15T02:37:56;93546.78;;;6.99;57.97
3178;BME280;38141;42.666;23.344;2023-03-15T02:40:25;93539.09;;;6.87;58.69
3178;BME280;38141;42.666;23.344;2023-03-15T02:42:56;93538.72;;;6.88;58.78
3178;BME280;38141;42.666;23.344;2023-03-15T02:45:26;93542.97;;;6.79;58.93
3178;BME280;38141;42.666;23.344;2023-03-15T02:47:54;93547.56;;;6.89;59.43
3178;BME280;38141;42.666;23.344;2023-03-15T02:50:21;93541.81;;;6.83;59.90
3178;BME280;38141;42.666;23.344;2023-03-15T02:52:48;93536.06;;;6.70;59.59
3178;BME280;38141;42.666;23.344;2023-03-15T02:55:17;93530.31;;;6.61;60.76
3178;BME280;38141;42.666;23.344;2023-03-15T02:57:44;93533.00;;;6.37;63.68
3178;BME280;38141;42.666;23.344;2023-03-15T03:00:11;93532.22;;;6.29;64.92
3178;BME280;38141;42.666;23.344;2023-03-15T03:02:41;93536.84;;;6.36;64.22
3178;BME280;38141;42.666;23.344;2023-03-15T03:05:09;93520.34;;;6.27;60.05
3178;BME280;38141;42.666;23.344;2023-03-15T03:07:36;93529.56;;;6.29;58.63
3178;BME280;38141;42.666;23.344;2023-03-15T03:10:04;93527.63;;;6.30;60.97
3178;BME280;38141;42.666;23.344;2023-03-15T03:12:32;93519.19;;;6.52;60.89
3178;BME280;38141;42.666;23.344;2023-03-15T03:14:58;93515.38;;;6.39;58.54
3178;BME280;38141;42.666;23.344;2023-03-15T03:17:27;93488.13;;;6.16;58.40
3178;BME280;38141;42.666;23.344;2023-03-15T03:19:55;93507.28;;;6.43;57.34
3178;BME280;38141;42.666;23.344;2023-03-15T03:22:22;93501.16;;;6.24;55.96
3178;BME280;38141;42.666;23.344;2023-03-15T03:24:50;93495.78;;;6.21;59.13
3178;BME280;38141;42.666;23.344;2023-03-15T03:27:17;93507.69;;;6.34;60.24
3178;BME280;38141;42.666;23.344;2023-03-15T03:29:44;93500.00;;;6.47;60.09
3178;BME280;38141;42.666;23.344;2023-03-15T03:32:11;93497.31;;;6.57;60.23
3178;BME280;38141;42.666;23.344;2023-03-15T03:34:38;93486.56;;;6.50;60.07
3178;BME280;38141;42.666;23.344;2023-03-15T03:37:06;93493.09;;;6.39;60.89
3178;BME280;38141;42.666;23.344;2023-03-15T03:39:33;93495.78;;;6.46;60.49
3178;BME280;38141;42.666;23.344;2023-03-15T03:41:59;93483.13;;;6.43;60.28
3178;BME280;38141;42.666;23.344;2023-03-15T03:44:27;93481.19;;;6.47;62.02
3178;BME280;38141;42.666;23.344;2023-03-15T03:46:53;93481.56;;;6.52;61.30
3178;BME280;38141;42.666;23.344;2023-03-15T03:49:20;93488.50;;;6.39;61.20
3178;BME280;38141;42.666;23.344;2023-03-15T03:51:47;93487.72;;;6.46;61.11
3178;BME280;38141;42.666;23.344;2023-03-15T03:54:16;93486.53;;;6.64;60.16
3178;BME280;38141;42.666;23.344;2023-03-15T03:56:46;93481.19;;;6.57;60.24
3178;BME280;38141;42.666;23.344;2023-03-15T03:59:13;93461.25;;;6.41;61.38
3178;BME280;38141;42.666;23.344;2023-03-15T04:01:39;93473.91;;;6.58;61.28
3178;BME280;38141;42.666;23.344;2023-03-15T04:04:07;93476.97;;;6.60;60.93
3178;BME280;38141;42.666;23.344;2023-03-15T04:06:34;93466.59;;;6.55;61.09
3178;BME280;38141;42.666;23.344;2023-03-15T04:09:01;93462.81;;;6.24;63.50
3178;BME280;38141;42.666;23.344;2023-03-15T04:11:30;93454.75;;;6.28;62.96
3178;BME280;38141;42.666;23.344;2023-03-15T04:13:56;93458.56;;;6.37;63.64
3178;BME280;38141;42.666;23.344;2023-03-15T04:16:23;93448.63;;;6.16;62.56
3178;BME280;38141;42.666;23.344;2023-03-15T04:18:50;93463.16;;;6.47;64.00
3178;BME280;38141;42.666;23.344;2023-03-15T04:21:20;93459.72;;;6.36;61.58
3178;BME280;38141;42.666;23.344;2023-03-15T04:23:47;93468.16;;;6.42;60.42
3178;BME280;38141;42.666;23.344;2023-03-15T04:26:14;93456.25;;;6.57;60.04
3178;BME280;38141;42.666;23.344;2023-03-15T04:28:43;93450.47;;;6.65;58.10
3178;BME280;38141;42.666;23.344;2023-03-15T04:31:10;93458.19;;;6.42;56.98
3178;BME280;38141;42.666;23.344;2023-03-15T04:33:39;93463.53;;;6.53;57.38
3178;BME280;38141;42.666;23.344;2023-03-15T04:36:06;93451.63;;;6.57;57.13
3178;BME280;38141;42.666;23.344;2023-03-15T04:38:33;93444.72;;;6.60;59.47
3178;BME280;38141;42.666;23.344;2023-03-15T04:40:59;93452.78;;;6.67;59.08
3178;BME280;38141;42.666;23.344;2023-03-15T04:43:26;93456.25;;;6.53;61.49
3178;BME280;38141;42.666;23.344;2023-03-15T04:45:54;93450.88;;;6.53;61.38
3178;BME280;38141;42.666;23.344;2023-03-15T04:48:21;93465.03;;;6.64;60.87
3178;BME280;38141;42.666;23.344;2023-03-15T04:50:48;93446.63;;;6.66;59.67
3178;BME280;38141;42.666;23.344;2023-03-15T04:53:14;93464.69;;;6.62;57.50
3178;BME280;38141;42.666;23.344;2023-03-15T04:55:41;93464.63;;;6.80;56.79
3178;BME280;38141;42.666;23.344;2023-03-15T04:58:08;93459.28;;;6.73;57.75
3178;BME280;38141;42.666;23.344;2023-03-15T05:00:35;93442.03;;;6.60;59.53
3178;BME280;38141;42.666;23.344;2023-03-15T05:03:03;93456.59;;;6.66;59.72
3178;BME280;38141;42.666;23.344;2023-03-15T05:05:31;93449.69;;;6.65;59.08
3178;BME280;38141;42.666;23.344;2023-03-15T05:07:58;93456.63;;;6.62;60.58
3178;BME280;38141;42.666;23.344;2023-03-15T05:10:25;93465.81;;;6.72;62.49
3178;BME280;38141;42.666;23.344;2023-03-15T05:12:54;93472.63;;;7.01;58.99
3178;BME280;38141;42.666;23.344;2023-03-15T05:15:21;93443.66;;;7.37;56.94
3178;BME280;38141;42.666;23.344;2023-03-15T05:17:47;93455.03;;;8.25;54.60
3178;BME280;38141;42.666;23.344;2023-03-15T05:20:16;93436.41;;;8.44;53.14
3178;BME280;38141;42.666;23.344;2023-03-15T05:22:43;93455.72;;;8.77;53.75
3178;BME280;38141;42.666;23.344;2023-03-15T05:25:10;93447.78;;;8.63;53.82
3178;BME280;38141;42.666;23.344;2023-03-15T05:27:37;93451.81;;;8.44;53.40
3178;BME280;38141;42.666;23.344;2023-03-15T05:30:07;93427.38;;;8.14;53.66
3178;BME280;38141;42.666;23.344;2023-03-15T05:32:34;93454.16;;;7.83;53.59
3178;BME280;38141;42.666;23.344;2023-03-15T05:35:05;93454.50;;;7.92;54.42
3178;BME280;38141;42.666;23.344;2023-03-15T05:37:33;93451.47;;;7.83;54.60
3178;BME280;38141;42.666;23.344;2023-03-15T05:40:00;93450.34;;;7.81;54.38
3178;BME280;38141;42.666;23.344;2023-03-15T05:42:32;93454.66;;;7.68;54.17
3178;BME280;38141;42.666;23.344;2023-03-15T05:44:59;93450.88;;;7.54;55.26
3178;BME280;38141;42.666;23.344;2023-03-15T05:47:26;93451.22;;;7.60;56.15
3178;BME280;38141;42.666;23.344;2023-03-15T05:49:52;93452.78;;;7.61;55.58
3178;BME280;38141;42.666;23.344;2023-03-15T05:52:19;93438.13;;;7.66;54.83
3178;BME280;38141;42.666;23.344;2023-03-15T05:54:47;93441.59;;;7.66;56.30
3178;BME280;38141;42.666;23.344;2023-03-15T05:57:14;93432.03;;;7.54;57.04
3178;BME280;38141;42.666;23.344;2023-03-15T05:59:41;93348.94;;;7.05;55.35
3178;BME280;38141;42.666;23.344;2023-03-15T06:02:07;93448.75;;;7.87;53.94
3178;BME280;38141;42.666;23.344;2023-03-15T06:04:34;93427.66;;;7.78;53.14
3178;BME280;38141;42.666;23.344;2023-03-15T06:07:02;93459.66;;;8.21;50.96
3178;BME280;38141;42.666;23.344;2023-03-15T06:09:29;93434.63;;;8.68;50.57
3178;BME280;38141;42.666;23.344;2023-03-15T06:11:57;93430.34;;;8.33;49.57
3178;BME280;38141;42.666;23.344;2023-03-15T06:14:24;93416.31;;;8.90;49.14
3178;BME280;38141;42.666;23.344;2023-03-15T06:16:51;93419.69;;;9.28;48.71
3178;BME280;38141;42.666;23.344;2023-03-15T06:19:18;93441.81;;;10.30;46.43
3178;BME280;38141;42.666;23.344;2023-03-15T06:21:45;93447.25;;;10.50;46.22
3178;BME280;38141;42.666;23.344;2023-03-15T06:24:12;93436.25;;;11.23;44.29
3178;BME280;38141;42.666;23.344;2023-03-15T06:26:39;93432.38;;;11.04;44.19
3178;BME280;38141;42.666;23.344;2023-03-15T06:29:07;93446.47;;;11.35;44.07
3178;BME280;38141;42.666;23.344;2023-03-15T06:31:34;93434.94;;;11.31;44.76
3178;BME280;38141;42.666;23.344;2023-03-15T06:34:01;93421.53;;;11.44;43.76
3178;BME280;38141;42.666;23.344;2023-03-15T06:36:28;93427.81;;;11.77;43.55
3178;BME280;38141;42.666;23.344;2023-03-15T06:38:55;93431.09;;;12.20;44.58
3178;BME280;38141;42.666;23.344;2023-03-15T06:41:22;93452.19;;;12.61;43.13
3178;BME280;38141;42.666;23.344;2023-03-15T06:43:50;93447.69;;;12.06;43.38
3178;BME280;38141;42.666;23.344;2023-03-15T06:46:18;93424.72;;;12.59;43.06
3178;BME280;38141;42.666;23.344;2023-03-15T06:48:45;93424.88;;;12.84;41.68
3178;BME280;38141;42.666;23.344;2023-03-15T06:51:11;93421.63;;;13.34;41.16
3178;BME280;38141;42.666;23.344;2023-03-15T06:53:38;93430.72;;;13.41;40.00
3178;BME280;38141;42.666;23.344;2023-03-15T06:56:05;93436.31;;;13.50;40.08
3178;BME280;38141;42.666;23.344;2023-03-15T06:58:32;93430.53;;;14.40;39.65
3178;BME280;38141;42.666;23.344;2023-03-15T07:00:59;93424.78;;;14.72;39.18
3178;BME280;38141;42.666;23.344;2023-03-15T07:03:27;93425.16;;;13.86;39.82
3178;BME280;38141;42.666;23.344;2023-03-15T07:05:54;93415.38;;;13.21;39.90
3178;BME280;38141;42.666;23.344;2023-03-15T07:08:22;93418.94;;;13.18;40.72
3178;BME280;38141;42.666;23.344;2023-03-15T07:10:49;93416.22;;;13.60;40.45
3178;BME280;38141;42.666;23.344;2023-03-15T07:13:17;93414.19;;;14.14;39.46
3178;BME280;38141;42.666;23.344;2023-03-15T07:15:44;93414.63;;;14.25;38.76
3178;BME280;38141;42.666;23.344;2023-03-15T07:18:12;93399.38;;;14.28;39.04
3178;BME280;38141;42.666;23.344;2023-03-15T07:20:40;93414.31;;;14.36;38.87
3178;BME280;38141;42.666;23.344;2023-03-15T07:23:07;93417.56;;;14.18;38.96
3178;BME280;38141;42.666;23.344;2023-03-15T07:25:34;93430.53;;;14.40;38.48
3178;BME280;38141;42.666;23.344;2023-03-15T07:28:00;93426.06;;;14.93;37.79
3178;BME280;38141;42.666;23.344;2023-03-15T07:30:27;93417.38;;;14.85;38.67
3178;BME280;38141;42.666;23.344;2023-03-15T07:32:54;93414.72;;;14.60;38.70
3178;BME280;38141;42.666;23.344;2023-03-15T07:35:22;93392.16;;;14.59;37.61
3178;BME280;38141;42.666;23.344;2023-03-15T07:37:50;93414.22;;;15.08;37.38
3178;BME280;38141;42.666;23.344;2023-03-15T07:40:17;93429.34;;;15.44;37.32
3178;BME280;38141;42.666;23.344;2023-03-15T07:42:43;93422.72;;;15.67;36.34
3178;BME280;38141;42.666;23.344;2023-03-15T07:45:11;93428.31;;;16.34;35.39
3178;BME280;38141;42.666;23.344;2023-03-15T07:47:37;93409.91;;;16.16;35.16
3178;BME280;38141;42.666;23.344;2023-03-15T07:50:05;93421.00;;;16.62;34.61
3178;BME280;38141;42.666;23.344;2023-03-15T07:52:32;93420.28;;;16.79;34.18
3178;BME280;38141;42.666;23.344;2023-03-15T07:55:00;93416.25;;;16.53;34.15
3178;BME280;38141;42.666;23.344;2023-03-15T07:57:27;93391.59;;;16.84;34.55
3178;BME280;38141;42.666;23.344;2023-03-15T07:59:53;93421.19;;;17.04;34.26
3178;BME280;38141;42.666;23.344;2023-03-15T08:02:20;93427.91;;;17.21;33.96
3178;BME280;38141;42.666;23.344;2023-03-15T08:04:47;93420.59;;;17.09;34.24
3178;BME280;38141;42.666;23.344;2023-03-15T08:07:15;93423.63;;;16.83;34.24
3178;BME280;38141;42.666;23.344;2023-03-15T08:09:42;93406.66;;;17.34;33.80
3178;BME280;38141;42.666;23.344;2023-03-15T08:12:12;93414.97;;;16.76;34.30
3178;BME280;38141;42.666;23.344;2023-03-15T08:14:39;93404.38;;;17.05;34.45
3178;BME280;38141;42.666;23.344;2023-03-15T08:17:06;93380.97;;;16.86;34.71
3178;BME280;38141;42.666;23.344;2023-03-15T08:19:37;93385.91;;;17.88;33.48
3178;BME280;38141;42.666;23.344;2023-03-15T08:22:04;93376.72;;;19.13;31.58
3178;BME280;38141;42.666;23.344;2023-03-15T08:24:31;93385.78;;;19.43;31.49
3178;BME280;38141;42.666;23.344;2023-03-15T08:26:57;93385.66;;;19.61;30.93
3178;BME280;38141;42.666;23.344;2023-03-15T08:29:26;93383.16;;;20.22;30.29
3178;BME280;38141;42.666;23.344;2023-03-15T08:31:54;93380.84;;;21.05;29.67
3178;BME280;38141;42.666;23.344;2023-03-15T08:34:21;93378.16;;;19.23;31.35
3178;BME280;38141;42.666;23.344;2023-03-15T08:36:48;93383.09;;;18.48;32.31
3178;BME280;38141;42.666;23.344;2023-03-15T08:39:15;93388.50;;;18.66;31.60
3178;BME280;38141;42.666;23.344;2023-03-15T08:41:42;93372.97;;;20.08;30.81
3178;BME280;38141;42.666;23.344;2023-03-15T08:44:10;93390.56;;;21.92;28.71
3178;BME280;38141;42.666;23.344;2023-03-15T08:46:38;93381.47;;;24.26;26.11
3178;BME280;38141;42.666;23.344;2023-03-15T08:49:04;93372.84;;;26.72;23.92
3178;BME280;38141;42.666;23.344;2023-03-15T08:51:31;93381.16;;;24.86;25.04
3178;BME280;38141;42.666;23.344;2023-03-15T08:53:59;93385.72;;;24.11;25.99
3178;BME280;38141;42.666;23.344;2023-03-15T08:56:28;93378.09;;;22.59;27.36
3178;BME280;38141;42.666;23.344;2023-03-15T08:58:56;93388.00;;;19.83;30.28
3178;BME280;38141;42.666;23.344;2023-03-15T09:01:23;93388.72;;;19.39;31.55
3178;BME280;38141;42.666;23.344;2023-03-15T09:03:54;93387.97;;;19.39;31.13
3178;BME280;38141;42.666;23.344;2023-03-15T09:06:21;93383.09;;;19.72;30.71
3178;BME280;38141;42.666;23.344;2023-03-15T09:08:48;93388.47;;;17.91;32.47
3178;BME280;38141;42.666;23.344;2023-03-15T09:11:14;93387.78;;;17.45;33.63
3178;BME280;38141;42.666;23.344;2023-03-15T09:13:41;93394.78;;;17.37;34.62
3178;BME280;38141;42.666;23.344;2023-03-15T09:16:08;93392.25;;;16.39;36.20
3178;BME280;38141;42.666;23.344;2023-03-15T09:18:35;93386.31;;;16.80;35.13
3178;BME280;38141;42.666;23.344;2023-03-15T09:21:04;93400.41;;;16.79;35.25
3178;BME280;38141;42.666;23.344;2023-03-15T09:23:31;93388.28;;;16.89;35.02
3178;BME280;38141;42.666;23.344;2023-03-15T09:25:58;93390.63;;;15.71;36.12
3178;BME280;38141;42.666;23.344;2023-03-15T09:28:25;93388.13;;;15.42;37.40
3178;BME280;38141;42.666;23.344;2023-03-15T09:30:52;93391.75;;;15.61;36.98
3178;BME280;38141;42.666;23.344;2023-03-15T09:33:19;93397.88;;;16.54;37.35
3178;BME280;38141;42.666;23.344;2023-03-15T09:35:48;93389.31;;;16.24;36.42
3178;BME280;38141;42.666;23.344;2023-03-15T09:38:17;93387.28;;;16.07;35.84
3178;BME280;38141;42.666;23.344;2023-03-15T09:40:44;93377.34;;;17.25;34.64
3178;BME280;38141;42.666;23.344;2023-03-15T09:43:21;93377.88;;;18.17;33.39
3178;BME280;38141;42.666;23.344;2023-03-15T09:46:02;93377.44;;;16.58;34.65
3178;BME280;38141;42.666;23.344;2023-03-15T09:48:34;93362.59;;;16.10;35.69
3178;BME280;38141;42.666;23.344;2023-03-15T09:51:06;93358.25;;;16.40;35.71
3178;BME280;38141;42.666;23.344;2023-03-15T09:53:41;93324.16;;;16.54;35.84
3178;BME280;38141;42.666;23.344;2023-03-15T09:56:19;93353.19;;;15.49;36.80
3178;BME280;38141;42.666;23.344;2023-03-15T09:58:49;93346.78;;;15.12;37.41
3178;BME280;38141;42.666;23.344;2023-03-15T10:01:20;93341.44;;;14.65;38.24
3178;BME280;38141;42.666;23.344;2023-03-15T10:03:50;93329.78;;;15.08;38.23
3178;BME280;38141;42.666;23.344;2023-03-15T10:06:19;93353.22;;;14.84;38.63
3178;BME280;38141;42.666;23.344;2023-03-15T10:08:54;93360.50;;;14.87;38.60
3178;BME280;38141;42.666;23.344;2023-03-15T10:11:26;93358.47;;;15.22;38.23
3178;BME280;38141;42.666;23.344;2023-03-15T10:14:05;93357.47;;;15.07;38.11
3178;BME280;38141;42.666;23.344;2023-03-15T10:16:38;93338.41;;;14.85;37.92
3178;BME280;38141;42.666;23.344;2023-03-15T10:19:14;93333.88;;;14.35;38.58
3178;BME280;38141;42.666;23.344;2023-03-15T10:21:51;93354.53;;;14.33;39.34
3178;BME280;38141;42.666;23.344;2023-03-15T10:24:22;93363.63;;;14.64;38.32
3178;BME280;38141;42.666;23.344;2023-03-15T10:26:51;93353.66;;;14.83;38.30
3178;BME280;38141;42.666;23.344;2023-03-15T10:29:22;93347.59;;;14.19;39.59
3178;BME280;38141;42.666;23.344;2023-03-15T10:31:51;93344.44;;;14.67;39.08
3178;BME280;38141;42.666;23.344;2023-03-15T10:34:19;93339.44;;;14.44;39.33
3178;BME280;38141;42.666;23.344;2023-03-15T10:36:48;93342.50;;;14.21;39.35
3178;BME280;38141;42.666;23.344;2023-03-15T10:39:20;93339.19;;;14.51;38.85
3178;BME280;38141;42.666;23.344;2023-03-15T10:41:48;93331.03;;;14.51;39.10
3178;BME280;38141;42.666;23.344;2023-03-15T10:44:18;93342.78;;;14.48;39.09
3178;BME280;38141;42.666;23.344;2023-03-15T10:46:59;93335.22;;;14.65;38.57
3178;BME280;38141;42.666;23.344;2023-03-15T10:49:32;93343.81;;;14.16;39.48
3178;BME280;38141;42.666;23.344;2023-03-15T10:52:00;93341.75;;;14.08;40.03
3178;BME280;38141;42.666;23.344;2023-03-15T10:54:30;93336.94;;;14.37;39.77
3178;BME280;38141;42.666;23.344;2023-03-15T10:57:00;93346.16;;;14.27;39.82
3178;BME280;38141;42.666;23.344;2023-03-15T10:59:29;93338.47;;;14.13;40.15
3178;BME280;38141;42.666;23.344;2023-03-15T11:02:17;93331.84;;;14.14;39.68
3178;BME280;38141;42.666;23.344;2023-03-15T11:04:48;93336.19;;;14.24;40.14
3178;BME280;38141;42.666;23.344;2023-03-15T11:07:16;93330.88;;;13.95;39.48
3178;BME280;38141;42.666;23.344;2023-03-15T11:09:50;93334.59;;;13.63;40.90
3178;BME280;38141;42.666;23.344;2023-03-15T11:12:22;93330.00;;;13.86;40.23
3178;BME280;38141;42.666;23.344;2023-03-15T11:14:51;93322.22;;;13.75;40.16
3178;BME280;38141;42.666;23.344;2023-03-15T11:17:20;93323.16;;;13.81;40.64
3178;BME280;38141;42.666;23.344;2023-03-15T11:19:52;93304.69;;;13.51;41.09
3178;BME280;38141;42.666;23.344;2023-03-15T11:22:20;93333.38;;;13.77;40.47
3178;BME280;38141;42.666;23.344;2023-03-15T11:24:48;93321.97;;;14.07;40.43
3178;BME280;38141;42.666;23.344;2023-03-15T11:27:17;93302.72;;;13.76;40.19
3178;BME280;38141;42.666;23.344;2023-03-15T11:29:47;93333.88;;;14.22;40.27
3178;BME280;38141;42.666;23.344;2023-03-15T11:32:16;93339.28;;;13.88;40.80
3178;BME280;38141;42.666;23.344;2023-03-15T11:34:47;93331.31;;;14.06;40.05
3178;BME280;38141;42.666;23.344;2023-03-15T11:37:20;93320.19;;;14.39;39.55
3178;BME280;38141;42.666;23.344;2023-03-15T11:39:55;93313.50;;;14.52;39.52
3178;BME280;38141;42.666;23.344;2023-03-15T11:42:29;93314.13;;;14.56;39.35
3178;BME280;38141;42.666;23.344;2023-03-15T11:45:03;93322.13;;;14.73;39.12
3178;BME280;38141;42.666;23.344;2023-03-15T11:47:40;93317.13;;;15.14;38.66
3178;BME280;38141;42.666;23.344;2023-03-15T11:50:12;93317.00;;;15.18;38.13
3178;BME280;38141;42.666;23.344;2023-03-15T11:52:39;93309.75;;;15.24;38.29
3178;BME280;38141;42.666;23.344;2023-03-15T11:55:16;93305.19;;;15.43;38.14
3178;BME280;38141;42.666;23.344;2023-03-15T11:57:44;93318.19;;;14.95;38.44
3178;BME280;38141;42.666;23.344;2023-03-15T12:00:25;93312.44;;;14.72;39.04
3178;BME280;38141;42.666;23.344;2023-03-15T12:03:38;93319.22;;;14.67;39.41
3178;BME280;38141;42.666;23.344;2023-03-15T12:06:34;93322.03;;;14.63;39.07
3178;BME280;38141;42.666;23.344;2023-03-15T12:09:01;93305.69;;;14.76;39.08
3178;BME280;38141;42.666;23.344;2023-03-15T12:11:39;93294.75;;;14.54;39.30
3178;BME280;38141;42.666;23.344;2023-03-15T12:14:27;93292.09;;;14.63;38.85
3178;BME280;38141;42.666;23.344;2023-03-15T12:20:01;93282.75;;;14.86;38.67
3178;BME280;38141;42.666;23.344;2023-03-15T12:22:34;93271.41;;;14.66;38.47
3178;BME280;38141;42.666;23.344;2023-03-15T12:25:07;93287.03;;;14.96;38.48
3178;BME280;38141;42.666;23.344;2023-03-15T12:27:44;93289.63;;;15.00;38.58
3178;BME280;38141;42.666;23.344;2023-03-15T12:30:19;93295.53;;;15.20;38.28
3178;BME280;38141;42.666;23.344;2023-03-15T12:32:51;93288.13;;;14.55;39.31
3178;BME280;38141;42.666;23.344;2023-03-15T12:35:20;93252.22;;;14.48;39.30
3178;BME280;38141;42.666;23.344;2023-03-15T12:37:49;93274.00;;;14.48;39.27
3178;BME280;38141;42.666;23.344;2023-03-15T12:40:41;93286.50;;;14.45;39.42
3178;BME280;38141;42.666;23.344;2023-03-15T12:43:34;93272.84;;;14.23;41.10
3178;BME280;38141;42.666;23.344;2023-03-15T12:46:01;93273.88;;;14.04;41.95
3178;BME280;38141;42.666;23.344;2023-03-15T12:48:28;93254.78;;;13.82;42.01
3178;BME280;38141;42.666;23.344;2023-03-15T12:51:01;93271.91;;;14.05;41.86
3178;BME280;38141;42.666;23.344;2023-03-15T12:53:44;93246.84;;;13.88;43.95
3178;BME280;38141;42.666;23.344;2023-03-15T12:56:28;93282.41;;;13.68;45.89
3178;BME280;38141;42.666;23.344;2023-03-15T12:59:03;93282.38;;;13.81;45.97
3178;BME280;38141;42.666;23.344;2023-03-15T13:01:31;93282.31;;;13.85;45.79
3178;BME280;38141;42.666;23.344;2023-03-15T13:03:58;93275.47;;;14.14;45.34
3178;BME280;38141;42.666;23.344;2023-03-15T13:06:39;93271.53;;;13.68;46.72
3178;BME280;38141;42.666;23.344;2023-03-15T13:09:16;93271.13;;;13.70;46.41
3178;BME280;38141;42.666;23.344;2023-03-15T13:11:51;93264.34;;;13.87;45.02
3178;BME280;38141;42.666;23.344;2023-03-15T13:14:31;93260.19;;;14.08;44.41
3178;BME280;38141;42.666;23.344;2023-03-15T13:17:05;93261.59;;;14.12;44.96
3178;BME280;38141;42.666;23.344;2023-03-15T13:19:44;93264.41;;;14.09;44.40